createdAt,value
2023-05-15T00:00:21.625Z,97.2646
2023-05-15T00:01:37.729Z,97.3271
2023-05-15T00:13:15.214Z,97.6273
2023-05-15T00:14:15.927Z,97.6795
2023-05-15T00:15:17.142Z,97.6607
2023-05-15T00:16:19.922Z,97.6718
2023-05-15T00:17:20.364Z,97.7054
2023-05-15T00:18:20.480Z,97.7203
2023-05-15T00:19:22.698Z,97.7274
2023-05-15T00:37:16.094Z,96.6933
2023-05-15T00:38:18.163Z,96.7216
2023-05-15T00:39:18.304Z,96.5899
2023-05-15T00:42:24.802Z,96.5856
2023-05-15T00:43:25.399Z,96.6700
2023-05-15T01:01:49.427Z,96.0243
2023-05-15T01:02:51.611Z,96.0529
2023-05-15T01:03:52.750Z,96.0085
2023-05-15T01:04:54.021Z,95.7521
2023-05-15T01:05:55.233Z,95.0945
2023-05-15T01:06:55.792Z,94.9935
2023-05-15T01:07:56.968Z,94.5485
2023-05-15T01:08:58.066Z,94.1853
2023-05-15T01:09:59.701Z,94.3184
2023-05-15T01:11:02.279Z,94.3943
2023-05-15T01:12:03.135Z,94.3983
2023-05-15T01:13:04.487Z,94.7529
2023-05-15T01:14:06.707Z,95.2546
2023-05-15T01:15:08.876Z,95.3592
2023-05-15T01:16:10.262Z,95.7023
2023-05-15T01:20:16.386Z,95.4533
2023-05-15T01:29:24.980Z,96.1424
2023-05-15T01:30:25.620Z,96.1097
2023-05-15T01:31:26.187Z,95.7988
2023-05-15T01:32:26.717Z,95.5354
2023-05-15T01:33:27.697Z,94.6975
2023-05-15T01:34:29.483Z,94.5830
2023-05-15T01:35:31.365Z,94.9094
2023-05-15T01:36:31.690Z,95.1036
2023-05-15T01:37:33.368Z,95.3600
2023-05-15T01:38:35.420Z,95.4134
2023-05-15T01:39:37.369Z,95.6203
2023-05-15T01:40:38.432Z,95.6295
2023-05-15T01:41:39.270Z,95.5978
2023-05-15T01:42:39.427Z,95.7823
2023-05-15T01:43:39.603Z,95.6320
2023-05-15T01:45:42.136Z,94.8675
2023-05-15T01:46:45.131Z,94.4165
2023-05-15T01:50:49.840Z,95.0087
2023-05-15T01:51:50.725Z,95.2587
2023-05-15T01:52:51.714Z,95.2379
2023-05-15T01:53:54.307Z,95.2277
2023-05-15T01:54:54.085Z,95.3195
2023-05-15T01:55:56.200Z,95.3601
2023-05-15T01:59:01.461Z,95.2728
2023-05-15T02:00:03.132Z,94.6055
2023-05-15T02:01:05.428Z,94.7391
2023-05-15T02:02:07.011Z,95.3834
2023-05-15T02:03:08.306Z,95.8775
2023-05-15T02:08:14.784Z,96.8669
2023-05-15T02:09:16.518Z,97.0792
2023-05-15T02:10:17.698Z,97.1590
2023-05-15T02:11:18.865Z,97.2870
2023-05-15T02:22:29.446Z,98.0602
2023-05-15T02:23:29.639Z,98.0268
2023-05-15T02:24:30.795Z,97.9850
2023-05-15T02:26:33.163Z,97.9954
2023-05-15T02:27:35.268Z,97.9683
2023-05-15T02:28:35.939Z,97.9262
2023-05-15T02:29:37.337Z,97.8612
2023-05-15T02:30:37.138Z,97.7665
2023-05-15T02:33:41.913Z,97.7611
2023-05-15T02:34:43.849Z,97.7525
2023-05-15T02:36:46.218Z,97.7016
2023-05-15T02:37:46.676Z,97.6214
2023-05-15T02:38:46.641Z,97.6002
2023-05-15T02:50:01.840Z,97.4328
2023-05-15T02:56:07.847Z,97.6222
2023-05-15T02:57:09.727Z,97.6689
2023-05-15T02:58:10.517Z,97.7178
2023-05-15T02:59:11.147Z,97.7308
2023-05-15T03:00:11.767Z,97.7572
2023-05-15T03:01:12.490Z,97.8012
2023-05-15T03:04:17.323Z,97.8478
2023-05-15T03:05:18.622Z,97.8860
2023-05-15T03:07:22.665Z,97.9969
2023-05-15T03:08:25.495Z,98.0563
2023-05-15T03:12:28.762Z,98.2327
2023-05-15T03:20:35.811Z,97.9160
2023-05-15T03:21:36.700Z,97.9062
2023-05-15T03:22:38.431Z,97.8699
2023-05-15T03:35:28.706Z,97.6537
2023-05-15T03:36:30.154Z,97.6158
2023-05-15T03:37:31.242Z,97.6202
2023-05-15T03:38:32.712Z,97.6310
2023-05-15T03:39:32.932Z,97.6200
2023-05-15T03:40:35.445Z,97.6801
2023-05-15T03:41:36.594Z,97.7090
2023-05-15T03:42:38.607Z,97.6708
2023-05-15T03:43:38.402Z,97.6265
2023-05-15T03:47:43.891Z,97.6618
2023-05-15T03:48:43.845Z,97.6096
2023-05-15T03:49:45.714Z,97.5865
2023-05-15T03:50:46.886Z,97.5949
2023-05-15T03:51:48.405Z,97.5947
2023-05-15T03:52:49.547Z,97.6159
2023-05-15T03:53:51.104Z,97.6050
2023-05-15T03:54:52.547Z,97.5588
2023-05-15T03:55:52.921Z,97.5697
2023-05-15T03:56:54.311Z,97.5903
2023-05-15T03:57:56.054Z,97.5920
2023-05-15T03:58:56.904Z,97.5864
2023-05-15T03:59:58.838Z,97.5898
2023-05-15T04:00:59.866Z,97.6217
2023-05-15T04:03:03.521Z,97.6283
2023-05-15T04:11:11.818Z,96.9323
2023-05-15T04:12:12.573Z,97.0403
2023-05-15T04:14:13.844Z,97.1474
2023-05-15T04:15:14.127Z,97.1370
2023-05-15T04:16:15.410Z,97.1549
2023-05-15T04:17:16.424Z,97.2140
2023-05-15T04:18:17.862Z,97.2724
2023-05-15T04:19:18.067Z,97.2535
2023-05-15T04:21:19.480Z,97.2201
2023-05-15T04:39:38.867Z,95.6340
2023-05-15T04:40:40.969Z,95.5717
2023-05-15T04:41:41.572Z,95.6299
2023-05-15T04:43:46.495Z,95.4197
2023-05-15T04:54:56.818Z,95.4251
2023-05-15T04:55:56.965Z,95.4656
2023-05-15T05:02:03.317Z,95.6061
2023-05-15T05:03:03.622Z,95.6071
2023-05-15T05:04:05.682Z,95.3586
2023-05-15T05:05:07.777Z,95.1937
2023-05-15T05:06:07.891Z,95.0932
2023-05-15T05:07:09.504Z,95.0620
2023-05-15T05:08:11.713Z,95.1157
2023-05-15T05:18:22.034Z,95.0665
2023-05-15T05:19:22.267Z,94.8721
2023-05-15T05:20:24.533Z,95.0712
2023-05-15T05:21:24.923Z,94.8598
2023-05-15T05:33:39.666Z,94.8098
2023-05-15T05:34:39.727Z,94.5328
2023-05-15T05:35:40.833Z,94.5345
2023-05-15T05:36:42.739Z,94.6509
2023-05-15T05:37:43.519Z,94.6710
2023-05-15T05:38:45.471Z,94.5666
2023-05-15T05:39:46.238Z,94.2780
2023-05-15T05:40:48.304Z,94.0858
2023-05-15T05:41:50.577Z,94.2479
2023-05-15T05:44:54.515Z,94.2672
2023-05-15T05:45:55.994Z,94.2361
2023-05-15T05:49:02.891Z,93.6439
2023-05-15T05:50:03.986Z,93.7867
2023-05-15T05:51:04.011Z,93.9929
2023-05-15T05:53:06.635Z,93.8744
2023-05-15T05:54:07.198Z,94.0751
2023-05-15T05:55:07.289Z,93.7463
2023-05-15T05:56:07.413Z,94.1314
2023-05-15T05:57:10.267Z,93.9614
2023-05-15T06:08:19.981Z,94.0942
2023-05-15T06:09:20.238Z,94.4272
2023-05-15T06:10:22.512Z,94.4264
2023-05-15T06:11:25.909Z,94.0452
2023-05-15T06:12:25.347Z,94.0362
2023-05-15T06:13:26.953Z,94.3614
2023-05-15T06:14:28.259Z,93.8651
2023-05-15T06:15:28.859Z,93.8429
2023-05-15T06:16:29.389Z,94.1697
2023-05-15T06:17:31.429Z,93.9705
2023-05-15T06:18:31.868Z,94.0456
2023-05-15T06:19:34.073Z,94.2027
2023-05-15T06:21:38.410Z,94.0945
2023-05-15T06:36:59.878Z,93.4291
2023-05-15T06:40:58.856Z,93.7449
2023-05-15T06:41:59.299Z,93.4108
2023-05-15T06:42:59.508Z,93.2465
2023-05-15T06:45:13.289Z,93.5297
2023-05-15T07:09:16.274Z,93.2583
2023-05-15T07:10:17.450Z,92.6636
2023-05-15T07:11:20.376Z,92.2930
2023-05-15T07:15:21.379Z,92.6490
2023-05-15T07:25:30.648Z,91.2611
2023-05-15T07:26:46.605Z,90.9740
2023-05-15T07:28:32.374Z,90.5981
2023-05-15T07:29:34.293Z,90.9573
2023-05-15T07:30:36.070Z,91.9828
2023-05-15T07:32:38.757Z,92.1203
2023-05-15T07:33:40.330Z,92.0256
2023-05-15T07:34:41.090Z,92.4938
2023-05-15T07:35:41.301Z,92.5211
2023-05-15T07:45:51.014Z,92.9920
2023-05-15T07:46:52.148Z,92.8251
2023-05-15T07:47:53.985Z,93.3075
2023-05-15T07:55:00.085Z,94.1945
2023-05-15T08:14:22.757Z,94.8416
2023-05-15T08:15:24.166Z,94.7547
2023-05-15T08:20:28.918Z,94.4197
2023-05-15T08:21:29.703Z,93.9791
2023-05-15T08:22:29.942Z,93.8216
2023-05-15T08:23:31.269Z,93.5666
2023-05-15T08:35:43.935Z,91.0339
2023-05-15T08:36:45.470Z,90.6201
2023-05-15T08:38:46.906Z,89.8539
2023-05-15T08:45:51.015Z,89.5605
2023-05-15T08:46:51.689Z,88.9332
2023-05-15T08:52:56.962Z,89.1282
2023-05-15T08:53:57.514Z,89.0491
2023-05-15T08:54:59.181Z,88.6967
2023-05-15T08:55:59.699Z,89.3946
2023-05-15T08:58:01.138Z,88.9136
2023-05-15T09:00:04.784Z,88.4115
2023-05-15T09:01:04.272Z,88.5853
2023-05-15T09:03:07.601Z,89.1011
2023-05-15T09:04:07.838Z,88.0823
2023-05-15T09:06:10.915Z,87.7354
2023-05-15T09:07:12.795Z,86.5263
2023-05-15T09:08:14.412Z,86.3537
2023-05-15T09:09:16.138Z,87.3617
2023-05-15T09:11:18.744Z,87.9842
2023-05-15T09:27:11.630Z,89.1976
2023-05-15T09:28:12.546Z,91.8950
2023-05-15T09:30:14.816Z,91.4414
2023-05-15T09:31:15.157Z,91.6331
2023-05-15T09:33:18.410Z,92.2057
2023-05-15T09:34:19.081Z,92.2100
2023-05-15T09:35:23.785Z,92.5818
2023-05-15T09:36:22.487Z,92.3367
2023-05-15T09:37:23.635Z,92.1773
2023-05-15T09:39:25.456Z,92.1278
2023-05-15T09:42:27.904Z,91.7647
2023-05-15T09:45:31.811Z,92.3748
2023-05-15T09:49:34.713Z,93.7115
2023-05-15T09:58:40.962Z,91.4845
2023-05-15T10:08:49.972Z,81.9466
2023-05-15T10:09:51.696Z,82.4150
2023-05-15T10:46:39.131Z,83.1322
2023-05-15T10:47:39.495Z,83.2070
2023-05-15T10:48:41.198Z,81.9578
2023-05-15T11:06:25.940Z,86.4863
2023-05-15T11:08:27.307Z,85.2575
2023-05-15T11:28:23.650Z,80.9261
2023-05-15T11:29:24.583Z,80.6687
2023-05-15T11:30:27.722Z,79.3054
2023-05-15T11:31:28.493Z,80.3613
2023-05-15T11:32:29.814Z,79.2875
2023-05-15T11:33:30.760Z,78.1615
2023-05-15T11:34:30.850Z,78.2398
2023-05-15T11:37:06.393Z,78.2582
2023-05-15T11:43:02.742Z,80.0578
2023-05-15T11:50:44.502Z,73.6875
2023-05-15T13:12:24.835Z,71.7443
2023-05-15T13:26:46.875Z,65.9576
2023-05-15T13:28:48.624Z,69.5981
2023-05-15T13:29:49.810Z,69.4757
2023-05-15T13:30:50.415Z,68.6483
2023-05-15T13:42:47.025Z,66.8871
2023-05-15T13:43:47.061Z,66.3694
2023-05-15T13:44:47.762Z,66.7148
2023-05-15T13:45:48.173Z,66.1673
2023-05-15T13:46:50.200Z,65.5716
2023-05-15T13:47:51.153Z,65.5213
2023-05-15T13:48:51.321Z,67.1758
2023-05-15T13:49:53.432Z,67.5623
2023-05-15T13:51:54.475Z,65.8422
2023-05-15T13:52:56.502Z,61.4663
2023-05-15T13:54:00.130Z,62.4464
2023-05-15T14:16:59.528Z,69.1806
2023-05-15T14:18:02.114Z,68.6173
2023-05-15T14:24:06.114Z,73.2251
2023-05-15T14:34:06.661Z,73.9072
2023-05-15T14:36:08.314Z,75.0435
2023-05-15T14:50:24.516Z,77.2496
2023-05-15T14:51:26.642Z,76.4460
2023-05-15T14:52:27.015Z,75.7937
2023-05-15T14:54:29.674Z,80.3518
2023-05-15T14:55:32.345Z,78.6011
2023-05-15T14:56:32.664Z,78.5393
2023-05-15T14:58:35.407Z,76.0888
2023-05-15T14:59:35.841Z,81.5304
2023-05-15T15:01:38.408Z,83.8999
2023-05-15T15:03:40.879Z,80.6511
2023-05-15T15:04:41.294Z,83.2247
2023-05-15T15:22:00.711Z,86.7100
2023-05-15T15:23:03.203Z,85.7730
2023-05-15T15:24:04.946Z,85.5786
2023-05-15T15:25:05.975Z,85.6933
2023-05-15T15:27:06.900Z,84.9578
2023-05-15T15:38:55.494Z,84.7902
2023-05-15T15:39:55.472Z,84.4289
2023-05-15T15:40:55.562Z,84.2145
2023-05-15T15:45:59.795Z,86.9867
2023-05-15T15:48:02.424Z,86.7773
2023-05-15T15:59:28.632Z,88.8565
2023-05-15T16:00:28.439Z,88.6695
2023-05-15T16:13:41.601Z,89.7861
2023-05-15T16:14:42.331Z,89.7132
2023-05-15T16:15:43.992Z,89.8927
2023-05-15T16:16:45.222Z,87.7522
2023-05-15T16:25:35.366Z,85.8545
2023-05-15T16:26:36.688Z,85.9118
2023-05-15T16:27:38.104Z,85.3854
2023-05-15T16:28:37.636Z,85.0707
2023-05-15T16:29:39.354Z,85.8187
2023-05-15T16:30:49.394Z,85.2619
2023-05-15T16:35:17.027Z,83.3133
2023-05-15T16:36:17.677Z,83.4848
2023-05-15T16:37:19.400Z,83.2725
2023-05-15T16:38:21.114Z,83.3038
2023-05-15T16:39:23.374Z,82.4417
2023-05-15T16:57:37.886Z,83.8113
2023-05-15T16:58:39.102Z,83.5911
2023-05-15T16:59:39.591Z,84.1312
2023-05-15T17:00:42.295Z,84.1205
2023-05-15T17:01:43.609Z,84.0347
2023-05-15T17:02:44.714Z,84.3327
2023-05-15T17:04:46.969Z,83.1006
2023-05-15T17:05:48.300Z,83.4283
2023-05-15T17:07:49.466Z,83.4054
2023-05-15T17:08:49.718Z,83.6017
2023-05-15T17:11:56.758Z,83.4777
2023-05-15T17:28:16.008Z,79.1494
2023-05-15T17:39:28.601Z,72.5617
2023-05-15T17:40:30.107Z,74.5846
2023-05-15T17:41:31.960Z,75.4819
2023-05-15T17:42:33.649Z,76.1608
2023-05-15T17:43:34.077Z,78.0139
2023-05-15T17:44:33.946Z,79.5330
2023-05-15T17:45:35.986Z,79.5989
2023-05-15T17:46:37.167Z,79.7064
2023-05-15T17:47:50.166Z,79.9299
2023-05-15T17:49:10.230Z,80.7160
2023-05-15T17:50:10.873Z,81.0718
2023-05-15T17:51:12.294Z,81.3337
2023-05-15T17:52:19.642Z,81.3020
2023-05-15T17:53:14.740Z,81.3675
2023-05-15T17:54:16.574Z,81.6815
2023-05-15T17:55:18.091Z,81.8624
2023-05-15T17:56:18.667Z,82.9148
2023-05-15T17:57:20.101Z,83.8521
2023-05-15T17:58:20.566Z,83.5258
2023-05-15T18:10:31.525Z,87.2205
2023-05-15T18:11:32.099Z,86.8969
2023-05-15T18:12:32.533Z,86.6059
2023-05-15T18:13:33.175Z,87.0061
2023-05-15T18:14:33.655Z,86.0565
2023-05-15T18:15:34.794Z,85.4568
2023-05-15T18:17:37.130Z,87.2312
2023-05-15T18:18:37.334Z,87.3379
2023-05-15T18:19:37.663Z,87.3301
2023-05-15T18:30:21.014Z,89.9552
2023-05-15T18:31:23.796Z,90.3836
2023-05-15T18:32:23.973Z,90.9201
2023-05-15T18:33:24.017Z,91.3903
2023-05-15T18:34:25.572Z,91.8112
2023-05-15T18:35:28.177Z,91.9074
2023-05-15T18:36:28.117Z,92.2211
2023-05-15T18:37:28.744Z,92.7209
2023-05-15T18:38:29.345Z,93.2939
2023-05-15T18:39:30.816Z,93.4960
2023-05-15T18:40:32.312Z,93.5227
2023-05-15T18:41:34.658Z,93.4182
2023-05-15T18:42:35.035Z,93.0693
2023-05-15T18:43:37.186Z,93.2286
2023-05-15T18:44:38.826Z,93.5835
2023-05-15T18:45:39.143Z,93.2330
2023-05-15T18:46:40.613Z,93.2271
2023-05-15T18:47:41.744Z,93.5504
2023-05-15T18:48:42.326Z,93.6152
2023-05-15T18:49:42.502Z,93.4739
2023-05-15T18:50:44.254Z,93.3520
2023-05-15T18:51:45.639Z,92.9674
2023-05-15T18:52:47.348Z,92.5998
2023-05-15T18:53:47.760Z,92.6944
2023-05-15T18:54:49.749Z,92.4167
2023-05-15T18:59:25.060Z,93.4306
2023-05-15T19:00:38.152Z,93.5621
2023-05-15T19:06:01.458Z,94.0779
2023-05-15T19:07:03.424Z,93.6374
2023-05-15T19:09:06.134Z,92.2160
2023-05-15T19:10:08.468Z,91.3654
2023-05-15T19:11:09.042Z,91.2812
2023-05-15T19:12:09.768Z,91.0091
2023-05-15T19:13:09.869Z,90.7621
2023-05-15T19:14:10.999Z,91.1358
2023-05-15T19:15:11.931Z,90.5816
2023-05-15T19:17:14.637Z,90.5334
2023-05-15T19:18:15.598Z,89.7714
2023-05-15T19:19:16.574Z,89.0850
2023-05-15T19:21:17.848Z,87.9701
2023-05-15T19:22:17.728Z,88.2984
2023-05-15T19:36:35.758Z,85.0048
2023-05-15T19:37:35.831Z,84.7960
2023-05-15T19:38:37.595Z,84.6750
2023-05-15T19:39:39.379Z,84.3736
2023-05-15T19:40:41.410Z,83.6036
2023-05-15T19:41:49.114Z,83.0511
2023-05-15T19:49:23.470Z,85.5878
2023-05-15T20:01:37.839Z,92.7639
2023-05-15T20:12:53.025Z,92.2947
2023-05-15T20:13:53.189Z,91.9586
2023-05-15T20:14:55.086Z,92.1512
2023-05-15T20:15:56.699Z,92.4995
2023-05-15T20:16:58.139Z,92.8134
2023-05-15T20:17:58.061Z,92.9561
2023-05-15T20:35:24.005Z,95.2864
2023-05-15T20:36:24.396Z,95.3648
2023-05-15T20:37:25.444Z,95.4505
2023-05-15T20:38:27.313Z,95.5019
2023-05-15T20:39:27.376Z,95.5465
2023-05-15T20:40:29.207Z,95.6713
2023-05-15T20:42:31.996Z,95.3562
2023-05-15T20:43:32.520Z,95.1897
2023-05-15T20:44:33.297Z,95.1092
2023-05-15T20:45:35.842Z,95.0305
2023-05-15T20:46:36.410Z,94.8396
2023-05-15T20:47:37.637Z,94.6740
2023-05-15T20:48:39.895Z,95.0823
2023-05-15T20:49:40.070Z,95.2210
2023-05-15T20:50:40.199Z,95.5068
2023-05-15T20:51:41.468Z,95.6657
2023-05-15T20:52:41.980Z,95.4462
2023-05-15T20:53:42.576Z,95.5360
2023-05-15T20:55:46.317Z,95.7535
2023-05-15T20:58:47.458Z,94.8062
2023-05-15T21:00:49.079Z,94.7553
2023-05-15T21:01:49.175Z,94.7699
2023-05-15T21:06:51.358Z,95.0472
2023-05-15T21:07:52.951Z,94.4065
2023-05-15T21:08:54.139Z,94.1667
2023-05-15T21:09:55.028Z,94.0122
2023-05-15T21:10:57.032Z,94.0598
2023-05-15T21:11:57.136Z,93.8244
2023-05-15T21:12:59.866Z,93.7782
2023-05-15T21:13:59.740Z,93.7733
2023-05-15T21:18:05.011Z,93.5472
2023-05-15T21:19:06.435Z,93.8189
2023-05-15T21:20:09.012Z,93.9405
2023-05-15T21:21:09.189Z,93.9349
2023-05-15T21:22:10.892Z,93.8799
2023-05-15T21:24:12.359Z,93.8030
2023-05-15T21:25:13.804Z,93.9182
2023-05-15T21:40:31.756Z,95.3260
2023-05-15T21:41:33.201Z,95.2766
2023-05-15T21:42:35.742Z,95.0439
2023-05-15T21:43:36.523Z,94.9707
2023-05-15T21:44:36.716Z,94.9337
2023-05-15T21:45:37.900Z,95.0973
2023-05-15T21:46:37.986Z,95.1824
2023-05-15T21:47:38.616Z,95.2821
2023-05-15T21:50:42.449Z,95.3579
2023-05-15T21:51:44.470Z,95.3454
2023-05-15T21:53:47.807Z,95.5226
2023-05-15T21:54:48.120Z,95.4658
2023-05-15T21:55:49.365Z,95.3146
2023-05-15T21:57:52.350Z,95.4575
2023-05-15T21:58:52.589Z,95.3921
2023-05-15T22:00:55.351Z,95.5552
2023-05-15T22:01:56.696Z,95.8472
2023-05-15T22:02:57.730Z,95.8453
2023-05-15T22:04:00.200Z,95.8983
2023-05-15T22:05:01.437Z,95.9349
2023-05-15T22:06:02.781Z,95.9349
2023-05-15T22:07:03.955Z,95.9423
2023-05-15T22:08:06.032Z,95.9457
2023-05-15T22:09:07.394Z,95.9741
2023-05-15T22:10:09.139Z,95.9384
2023-05-15T22:13:14.590Z,96.0548
2023-05-15T22:14:15.202Z,96.1648
2023-05-15T22:15:17.689Z,96.0558
2023-05-15T22:16:20.108Z,95.9411
2023-05-15T22:19:32.994Z,95.4732
2023-05-15T22:23:25.804Z,93.2185
2023-05-15T22:24:26.893Z,93.0150
2023-05-15T22:34:03.107Z,92.4449
2023-05-15T22:46:15.505Z,95.3874
2023-05-15T22:47:15.855Z,95.3669
2023-05-15T22:49:18.295Z,95.3951
2023-05-15T22:50:20.525Z,95.4771
2023-05-15T22:51:20.565Z,95.6470
2023-05-15T22:52:21.672Z,95.8747
2023-05-15T22:53:24.164Z,96.0277
2023-05-15T22:54:24.856Z,96.1480
2023-05-15T22:55:25.367Z,96.1564
2023-05-15T23:12:42.546Z,96.3033
2023-05-15T23:13:44.782Z,96.3066
2023-05-15T23:14:46.261Z,96.4248
2023-05-15T23:16:48.905Z,96.5800
2023-05-15T23:17:50.505Z,96.5694
2023-05-15T23:18:51.416Z,96.5869
2023-05-15T23:20:54.297Z,96.8586
2023-05-15T23:30:05.382Z,96.8563
2023-05-15T23:31:06.201Z,96.7999
2023-05-15T23:34:09.882Z,96.2396
2023-05-15T23:35:11.420Z,96.0393
2023-05-15T23:36:13.784Z,95.6195
2023-05-15T23:54:35.337Z,95.8705
2023-05-15T23:55:37.423Z,95.9910
2023-05-15T23:56:38.822Z,96.1913
2023-05-15T23:57:40.285Z,96.2659
2023-05-15T23:59:45.575Z,96.3668
